sensor_id;sensor_type;location;lat;lon;timestamp;P1;durP1;ratioP1;P2;durP2;ratioP2
52554;SDS011;38455;52.710;6.502;2023-03-14T00:02:22;26.67;;;5.43;;
52554;SDS011;38455;52.710;6.502;2023-03-14T00:04:48;25.05;;;5.82;;
52554;SDS011;38455;52.710;6.502;2023-03-14T00:07:14;30.60;;;4.60;;
52554;SDS011;38455;52.710;6.502;2023-03-14T00:09:39;23.52;;;5.72;;
52554;SDS011;38455;52.710;6.502;2023-03-14T00:12:05;24.58;;;6.28;;
52554;SDS011;38455;52.710;6.502;2023-03-14T00:14:32;34.65;;;6.70;;
52554;SDS011;38455;52.710;6.502;2023-03-14T00:16:58;22.42;;;5.82;;
52554;SDS011;38455;52.710;6.502;2023-03-14T00:19:24;19.52;;;5.43;;
52554;SDS011;38455;52.710;6.502;2023-03-14T00:21:49;27.00;;;5.97;;
52554;SDS011;38455;52.710;6.502;2023-03-14T00:24:15;23.63;;;6.22;;
52554;SDS011;38455;52.710;6.502;2023-03-14T00:26:41;32.90;;;5.78;;
52554;SDS011;38455;52.710;6.502;2023-03-14T00:29:06;25.15;;;5.40;;
52554;SDS011;38455;52.710;6.502;2023-03-14T00:31:32;23.80;;;5.72;;
52554;SDS011;38455;52.710;6.502;2023-03-14T00:33:58;23.27;;;5.20;;
52554;SDS011;38455;52.710;6.502;2023-03-14T00:36:24;20.95;;;6.40;;
52554;SDS011;38455;52.710;6.502;2023-03-14T00:38:51;24.60;;;5.68;;
52554;SDS011;38455;52.710;6.502;2023-03-14T00:41:17;21.73;;;6.50;;
52554;SDS011;38455;52.710;6.502;2023-03-14T00:43:45;18.02;;;5.78;;
52554;SDS011;38455;52.710;6.502;2023-03-14T00:46:11;21.15;;;5.82;;
52554;SDS011;38455;52.710;6.502;2023-03-14T00:48:37;31.73;;;8.15;;
52554;SDS011;38455;52.710;6.502;2023-03-14T00:51:04;19.20;;;5.60;;
52554;SDS011;38455;52.710;6.502;2023-03-14T00:53:34;22.10;;;7.53;;
52554;SDS011;38455;52.710;6.502;2023-03-14T00:56:05;18.27;;;6.00;;
52554;SDS011;38455;52.710;6.502;2023-03-14T00:58:32;22.73;;;7.32;;
52554;SDS011;38455;52.710;6.502;2023-03-14T01:00:58;18.35;;;6.38;;
52554;SDS011;38455;52.710;6.502;2023-03-14T01:03:23;29.30;;;6.40;;
52554;SDS011;38455;52.710;6.502;2023-03-14T01:05:51;23.35;;;5.88;;
52554;SDS011;38455;52.710;6.502;2023-03-14T01:08:16;21.90;;;5.28;;
52554;SDS011;38455;52.710;6.502;2023-03-14T01:10:42;22.95;;;6.10;;
52554;SDS011;38455;52.710;6.502;2023-03-14T01:13:09;22.35;;;6.65;;
52554;SDS011;38455;52.710;6.502;2023-03-14T01:15:35;21.35;;;4.65;;
52554;SDS011;38455;52.710;6.502;2023-03-14T01:18:02;21.85;;;4.82;;
52554;SDS011;38455;52.710;6.502;2023-03-14T01:20:28;23.13;;;4.68;;
52554;SDS011;38455;52.710;6.502;2023-03-14T01:22:54;20.60;;;4.97;;
52554;SDS011;38455;52.710;6.502;2023-03-14T01:25:20;21.73;;;4.13;;
52554;SDS011;38455;52.710;6.502;2023-03-14T01:27:45;30.67;;;6.32;;
52554;SDS011;38455;52.710;6.502;2023-03-14T01:30:11;18.35;;;6.05;;
52554;SDS011;38455;52.710;6.502;2023-03-14T01:32:38;16.42;;;4.47;;
52554;SDS011;38455;52.710;6.502;2023-03-14T01:35:04;18.92;;;5.95;;
52554;SDS011;38455;52.710;6.502;2023-03-14T01:37:30;18.45;;;4.07;;
52554;SDS011;38455;52.710;6.502;2023-03-14T01:39:56;26.90;;;5.53;;
52554;SDS011;38455;52.710;6.502;2023-03-14T01:42:21;22.00;;;6.38;;
52554;SDS011;38455;52.710;6.502;2023-03-14T01:47:21;22.88;;;5.43;;
52554;SDS011;38455;52.710;6.502;2023-03-14T01:49:49;15.52;;;4.93;;
52554;SDS011;38455;52.710;6.502;2023-03-14T01:52:28;16.90;;;5.28;;
52554;SDS011;38455;52.710;6.502;2023-03-14T01:55:04;17.80;;;4.93;;
52554;SDS011;38455;52.710;6.502;2023-03-14T01:57:32;21.73;;;4.60;;
52554;SDS011;38455;52.710;6.502;2023-03-14T02:00:07;17.65;;;4.35;;
52554;SDS011;38455;52.710;6.502;2023-03-14T02:02:36;19.67;;;5.00;;
52554;SDS011;38455;52.710;6.502;2023-03-14T02:05:05;24.08;;;4.63;;
52554;SDS011;38455;52.710;6.502;2023-03-14T02:07:39;13.57;;;3.65;;
52554;SDS011;38455;52.710;6.502;2023-03-14T02:10:12;16.20;;;4.25;;
52554;SDS011;38455;52.710;6.502;2023-03-14T02:12:40;16.25;;;4.82;;
52554;SDS011;38455;52.710;6.502;2023-03-14T02:15:06;16.27;;;4.78;;
52554;SDS011;38455;52.710;6.502;2023-03-14T02:17:32;22.55;;;5.60;;
52554;SDS011;38455;52.710;6.502;2023-03-14T02:22:44;21.90;;;4.00;;
52554;SDS011;38455;52.710;6.502;2023-03-14T02:28:00;16.58;;;4.13;;
52554;SDS011;38455;52.710;6.502;2023-03-14T02:30:28;16.00;;;3.88;;
52554;SDS011;38455;52.710;6.502;2023-03-14T02:32:57;21.15;;;4.75;;
52554;SDS011;38455;52.710;6.502;2023-03-14T02:35:29;13.27;;;3.50;;
52554;SDS011;38455;52.710;6.502;2023-03-14T02:38:50;13.65;;;3.40;;
52554;SDS011;38455;52.710;6.502;2023-03-14T02:41:00;11.20;;;2.70;;
52554;SDS011;38455;52.710;6.502;2023-03-14T02:43:26;9.75;;;2.38;;
52554;SDS011;38455;52.710;6.502;2023-03-14T02:45:51;16.08;;;2.95;;
52554;SDS011;38455;52.710;6.502;2023-03-14T02:48:18;16.98;;;3.40;;
52554;SDS011;38455;52.710;6.502;2023-03-14T02:50:59;12.27;;;3.80;;
52554;SDS011;38455;52.710;6.502;2023-03-14T02:53:26;13.40;;;3.08;;
52554;SDS011;38455;52.710;6.502;2023-03-14T02:55:54;16.55;;;4.28;;
52554;SDS011;38455;52.710;6.502;2023-03-14T02:58:20;9.73;;;3.40;;
52554;SDS011;38455;52.710;6.502;2023-03-14T03:00:46;9.35;;;3.65;;
52554;SDS011;38455;52.710;6.502;2023-03-14T03:03:12;13.80;;;3.90;;
52554;SDS011;38455;52.710;6.502;2023-03-14T03:05:39;11.18;;;3.17;;
52554;SDS011;38455;52.710;6.502;2023-03-14T03:08:05;11.27;;;3.40;;
52554;SDS011;38455;52.710;6.502;2023-03-14T03:10:31;9.45;;;3.50;;
52554;SDS011;38455;52.710;6.502;2023-03-14T03:12:57;9.27;;;3.00;;
52554;SDS011;38455;52.710;6.502;2023-03-14T03:15:23;10.75;;;3.38;;
52554;SDS011;38455;52.710;6.502;2023-03-14T03:17:49;16.85;;;3.83;;
52554;SDS011;38455;52.710;6.502;2023-03-14T03:20:15;9.02;;;3.78;;
52554;SDS011;38455;52.710;6.502;2023-03-14T03:22:41;11.20;;;4.07;;
52554;SDS011;38455;52.710;6.502;2023-03-14T03:25:07;8.88;;;3.65;;
52554;SDS011;38455;52.710;6.502;2023-03-14T03:27:34;13.82;;;4.28;;
52554;SDS011;38455;52.710;6.502;2023-03-14T03:30:01;16.83;;;3.80;;
52554;SDS011;38455;52.710;6.502;2023-03-14T03:32:28;17.17;;;4.45;;
52554;SDS011;38455;52.710;6.502;2023-03-14T03:34:53;13.55;;;4.05;;
52554;SDS011;38455;52.710;6.502;2023-03-14T03:37:19;11.90;;;4.07;;
52554;SDS011;38455;52.710;6.502;2023-03-14T03:39:44;13.07;;;4.13;;
52554;SDS011;38455;52.710;6.502;2023-03-14T03:42:10;15.00;;;4.10;;
52554;SDS011;38455;52.710;6.502;2023-03-14T03:44:36;15.68;;;3.95;;
52554;SDS011;38455;52.710;6.502;2023-03-14T03:47:02;16.15;;;3.70;;
52554;SDS011;38455;52.710;6.502;2023-03-14T03:49:28;10.98;;;3.72;;
52554;SDS011;38455;52.710;6.502;2023-03-14T03:51:55;13.57;;;3.90;;
52554;SDS011;38455;52.710;6.502;2023-03-14T03:54:21;18.70;;;4.18;;
52554;SDS011;38455;52.710;6.502;2023-03-14T03:56:46;14.95;;;3.75;;
52554;SDS011;38455;52.710;6.502;2023-03-14T03:59:12;10.70;;;3.38;;
52554;SDS011;38455;52.710;6.502;2023-03-14T04:01:38;18.20;;;3.90;;
52554;SDS011;38455;52.710;6.502;2023-03-14T04:04:04;20.98;;;4.95;;
52554;SDS011;38455;52.710;6.502;2023-03-14T04:06:29;13.32;;;4.00;;
52554;SDS011;38455;52.710;6.502;2023-03-14T04:08:55;15.73;;;4.40;;
52554;SDS011;38455;52.710;6.502;2023-03-14T04:11:21;14.73;;;3.65;;
52554;SDS011;38455;52.710;6.502;2023-03-14T04:13:47;16.05;;;4.30;;
52554;SDS011;38455;52.710;6.502;2023-03-14T04:16:19;13.68;;;4.93;;
52554;SDS011;38455;52.710;6.502;2023-03-14T04:18:47;17.77;;;4.55;;
52554;SDS011;38455;52.710;6.502;2023-03-14T04:21:13;13.88;;;5.88;;
52554;SDS011;38455;52.710;6.502;2023-03-14T04:23:39;11.40;;;4.38;;
52554;SDS011;38455;52.710;6.502;2023-03-14T04:26:04;14.52;;;4.00;;
52554;SDS011;38455;52.710;6.502;2023-03-14T04:28:30;8.57;;;4.82;;
52554;SDS011;38455;52.710;6.502;2023-03-14T04:30:56;15.65;;;4.15;;
52554;SDS011;38455;52.710;6.502;2023-03-14T04:33:21;10.13;;;4.50;;
52554;SDS011;38455;52.710;6.502;2023-03-14T04:35:47;11.32;;;5.07;;
52554;SDS011;38455;52.710;6.502;2023-03-14T04:38:15;13.30;;;4.35;;
52554;SDS011;38455;52.710;6.502;2023-03-14T04:40:41;15.43;;;4.75;;
52554;SDS011;38455;52.710;6.502;2023-03-14T04:43:07;17.10;;;4.40;;
52554;SDS011;38455;52.710;6.502;2023-03-14T04:45:34;11.93;;;4.65;;
52554;SDS011;38455;52.710;6.502;2023-03-14T04:48:00;10.57;;;4.53;;
52554;SDS011;38455;52.710;6.502;2023-03-14T04:50:26;11.30;;;4.45;;
52554;SDS011;38455;52.710;6.502;2023-03-14T04:52:52;12.85;;;4.68;;
52554;SDS011;38455;52.710;6.502;2023-03-14T04:55:17;14.32;;;5.07;;
52554;SDS011;38455;52.710;6.502;2023-03-14T04:57:43;15.68;;;4.80;;
52554;SDS011;38455;52.710;6.502;2023-03-14T05:00:09;13.57;;;4.55;;
52554;SDS011;38455;52.710;6.502;2023-03-14T05:02:35;14.60;;;4.80;;
52554;SDS011;38455;52.710;6.502;2023-03-14T05:05:01;10.38;;;4.53;;
52554;SDS011;38455;52.710;6.502;2023-03-14T05:07:27;16.65;;;5.47;;
52554;SDS011;38455;52.710;6.502;2023-03-14T05:09:53;16.30;;;6.15;;
52554;SDS011;38455;52.710;6.502;2023-03-14T05:12:19;11.95;;;5.53;;
52554;SDS011;38455;52.710;6.502;2023-03-14T05:14:45;11.82;;;4.63;;
52554;SDS011;38455;52.710;6.502;2023-03-14T05:17:11;15.43;;;4.90;;
52554;SDS011;38455;52.710;6.502;2023-03-14T05:19:39;9.82;;;4.20;;
52554;SDS011;38455;52.710;6.502;2023-03-14T05:22:08;18.55;;;4.75;;
52554;SDS011;38455;52.710;6.502;2023-03-14T05:24:33;11.30;;;4.15;;
52554;SDS011;38455;52.710;6.502;2023-03-14T05:26:59;15.02;;;4.82;;
52554;SDS011;38455;52.710;6.502;2023-03-14T05:29:25;13.07;;;5.00;;
52554;SDS011;38455;52.710;6.502;2023-03-14T05:31:50;16.30;;;5.00;;
52554;SDS011;38455;52.710;6.502;2023-03-14T05:34:16;10.73;;;4.05;;
52554;SDS011;38455;52.710;6.502;2023-03-14T05:36:42;15.63;;;4.43;;
52554;SDS011;38455;52.710;6.502;2023-03-14T05:39:07;18.48;;;4.47;;
52554;SDS011;38455;52.710;6.502;2023-03-14T05:41:33;20.38;;;5.20;;
52554;SDS011;38455;52.710;6.502;2023-03-14T05:43:59;15.20;;;4.50;;
52554;SDS011;38455;52.710;6.502;2023-03-14T05:46:24;14.68;;;4.20;;
52554;SDS011;38455;52.710;6.502;2023-03-14T05:48:50;13.05;;;3.60;;
52554;SDS011;38455;52.710;6.502;2023-03-14T05:51:15;14.90;;;4.18;;
52554;SDS011;38455;52.710;6.502;2023-03-14T05:53:41;15.05;;;4.00;;
52554;SDS011;38455;52.710;6.502;2023-03-14T05:56:07;18.27;;;5.15;;
52554;SDS011;38455;52.710;6.502;2023-03-14T05:58:33;17.67;;;5.72;;
52554;SDS011;38455;52.710;6.502;2023-03-14T06:01:01;14.15;;;4.15;;
52554;SDS011;38455;52.710;6.502;2023-03-14T06:03:28;15.38;;;4.45;;
52554;SDS011;38455;52.710;6.502;2023-03-14T06:05:54;11.45;;;4.38;;
52554;SDS011;38455;52.710;6.502;2023-03-14T06:08:19;19.15;;;4.93;;
52554;SDS011;38455;52.710;6.502;2023-03-14T06:10:45;16.50;;;4.32;;
52554;SDS011;38455;52.710;6.502;2023-03-14T06:13:11;15.30;;;4.43;;
52554;SDS011;38455;52.710;6.502;2023-03-14T06:15:37;15.85;;;4.65;;
52554;SDS011;38455;52.710;6.502;2023-03-14T06:18:02;14.30;;;4.85;;
52554;SDS011;38455;52.710;6.502;2023-03-14T06:20:28;16.52;;;5.57;;
52554;SDS011;38455;52.710;6.502;2023-03-14T06:22:54;15.35;;;5.45;;
52554;SDS011;38455;52.710;6.502;2023-03-14T06:25:19;20.25;;;5.72;;
52554;SDS011;38455;52.710;6.502;2023-03-14T06:27:45;15.02;;;4.80;;
52554;SDS011;38455;52.710;6.502;2023-03-14T06:30:11;16.85;;;4.43;;
52554;SDS011;38455;52.710;6.502;2023-03-14T06:32:37;9.30;;;4.63;;
52554;SDS011;38455;52.710;6.502;2023-03-14T06:35:02;17.02;;;5.55;;
52554;SDS011;38455;52.710;6.502;2023-03-14T06:37:28;13.63;;;4.63;;
52554;SDS011;38455;52.710;6.502;2023-03-14T06:39:54;12.05;;;4.82;;
52554;SDS011;38455;52.710;6.502;2023-03-14T06:42:20;12.48;;;4.22;;
52554;SDS011;38455;52.710;6.502;2023-03-14T06:44:46;14.30;;;4.72;;
52554;SDS011;38455;52.710;6.502;2023-03-14T06:47:12;6.95;;;3.70;;
52554;SDS011;38455;52.710;6.502;2023-03-14T06:49:38;12.77;;;4.00;;
52554;SDS011;38455;52.710;6.502;2023-03-14T06:52:04;17.33;;;5.18;;
52554;SDS011;38455;52.710;6.502;2023-03-14T06:54:29;10.25;;;4.82;;
52554;SDS011;38455;52.710;6.502;2023-03-14T06:56:55;12.88;;;4.82;;
52554;SDS011;38455;52.710;6.502;2023-03-14T06:59:21;16.42;;;5.63;;
52554;SDS011;38455;52.710;6.502;2023-03-14T07:01:46;15.00;;;4.93;;
52554;SDS011;38455;52.710;6.502;2023-03-14T07:04:13;16.13;;;5.32;;
52554;SDS011;38455;52.710;6.502;2023-03-14T07:06:39;15.00;;;5.20;;
52554;SDS011;38455;52.710;6.502;2023-03-14T07:09:09;13.38;;;5.95;;
52554;SDS011;38455;52.710;6.502;2023-03-14T07:11:35;14.90;;;5.80;;
52554;SDS011;38455;52.710;6.502;2023-03-14T07:14:01;21.42;;;6.15;;
52554;SDS011;38455;52.710;6.502;2023-03-14T07:16:27;6.40;;;2.63;;
52554;SDS011;38455;52.710;6.502;2023-03-14T07:18:56;5.40;;;1.90;;
52554;SDS011;38455;52.710;6.502;2023-03-14T07:21:22;5.45;;;1.80;;
52554;SDS011;38455;52.710;6.502;2023-03-14T07:23:48;3.38;;;1.40;;
52554;SDS011;38455;52.710;6.502;2023-03-14T07:26:13;4.72;;;1.77;;
52554;SDS011;38455;52.710;6.502;2023-03-14T07:28:39;6.15;;;1.77;;
52554;SDS011;38455;52.710;6.502;2023-03-14T07:31:05;3.83;;;1.60;;
52554;SDS011;38455;52.710;6.502;2023-03-14T07:33:31;6.93;;;2.00;;
52554;SDS011;38455;52.710;6.502;2023-03-14T07:35:57;9.15;;;2.42;;
52554;SDS011;38455;52.710;6.502;2023-03-14T07:38:23;6.28;;;2.80;;
52554;SDS011;38455;52.710;6.502;2023-03-14T07:40:48;6.63;;;2.28;;
52554;SDS011;38455;52.710;6.502;2023-03-14T07:43:14;5.65;;;1.77;;
52554;SDS011;38455;52.710;6.502;2023-03-14T07:45:40;7.90;;;1.83;;
52554;SDS011;38455;52.710;6.502;2023-03-14T07:48:06;7.57;;;1.40;;
52554;SDS011;38455;52.710;6.502;2023-03-14T07:50:31;3.60;;;0.90;;
52554;SDS011;38455;52.710;6.502;2023-03-14T07:52:57;9.35;;;2.10;;
52554;SDS011;38455;52.710;6.502;2023-03-14T07:55:23;4.47;;;0.95;;
52554;SDS011;38455;52.710;6.502;2023-03-14T07:57:48;5.80;;;1.00;;
52554;SDS011;38455;52.710;6.502;2023-03-14T08:00:14;8.55;;;2.33;;
52554;SDS011;38455;52.710;6.502;2023-03-14T08:02:41;10.57;;;1.10;;
52554;SDS011;38455;52.710;6.502;2023-03-14T08:05:07;4.18;;;1.00;;
52554;SDS011;38455;52.710;6.502;2023-03-14T08:07:33;4.50;;;0.88;;
52554;SDS011;38455;52.710;6.502;2023-03-14T08:09:59;5.95;;;0.88;;
52554;SDS011;38455;52.710;6.502;2023-03-14T08:12:24;4.57;;;0.73;;
52554;SDS011;38455;52.710;6.502;2023-03-14T08:14:50;8.13;;;1.10;;
52554;SDS011;38455;52.710;6.502;2023-03-14T08:17:15;2.08;;;0.60;;
52554;SDS011;38455;52.710;6.502;2023-03-14T08:19:44;2.10;;;0.70;;
52554;SDS011;38455;52.710;6.502;2023-03-14T08:22:09;1.48;;;0.50;;
52554;SDS011;38455;52.710;6.502;2023-03-14T08:24:35;2.47;;;0.68;;
52554;SDS011;38455;52.710;6.502;2023-03-14T08:27:00;1.77;;;0.60;;
52554;SDS011;38455;52.710;6.502;2023-03-14T08:29:26;2.35;;;0.68;;
52554;SDS011;38455;52.710;6.502;2023-03-14T08:31:52;5.38;;;0.70;;
52554;SDS011;38455;52.710;6.502;2023-03-14T08:34:20;4.25;;;0.85;;
52554;SDS011;38455;52.710;6.502;2023-03-14T08:36:46;5.90;;;0.80;;
52554;SDS011;38455;52.710;6.502;2023-03-14T08:39:12;2.05;;;0.65;;
52554;SDS011;38455;52.710;6.502;2023-03-14T08:41:37;3.80;;;0.70;;
52554;SDS011;38455;52.710;6.502;2023-03-14T08:44:09;6.38;;;0.80;;
52554;SDS011;38455;52.710;6.502;2023-03-14T08:46:36;3.40;;;0.50;;
52554;SDS011;38455;52.710;6.502;2023-03-14T08:49:02;3.17;;;0.80;;
52554;SDS011;38455;52.710;6.502;2023-03-14T08:51:28;6.65;;;1.00;;
52554;SDS011;38455;52.710;6.502;2023-03-14T08:53:54;3.03;;;0.55;;
52554;SDS011;38455;52.710;6.502;2023-03-14T08:56:19;10.02;;;0.90;;
52554;SDS011;38455;52.710;6.502;2023-03-14T08:58:45;4.93;;;0.73;;
52554;SDS011;38455;52.710;6.502;2023-03-14T09:01:11;4.70;;;0.70;;
52554;SDS011;38455;52.710;6.502;2023-03-14T09:03:37;7.43;;;0.75;;
52554;SDS011;38455;52.710;6.502;2023-03-14T09:06:04;6.95;;;1.30;;
52554;SDS011;38455;52.710;6.502;2023-03-14T09:08:34;7.15;;;1.27;;
52554;SDS011;38455;52.710;6.502;2023-03-14T09:11:01;4.50;;;1.13;;
52554;SDS011;38455;52.710;6.502;2023-03-14T09:13:26;8.50;;;1.00;;
52554;SDS011;38455;52.710;6.502;2023-03-14T09:15:52;5.15;;;0.95;;
52554;SDS011;38455;52.710;6.502;2023-03-14T09:18:19;4.78;;;0.90;;
52554;SDS011;38455;52.710;6.502;2023-03-14T09:20:45;7.45;;;1.15;;
52554;SDS011;38455;52.710;6.502;2023-03-14T09:23:11;3.88;;;1.00;;
52554;SDS011;38455;52.710;6.502;2023-03-14T09:25:37;10.23;;;1.45;;
52554;SDS011;38455;52.710;6.502;2023-03-14T09:28:02;4.07;;;0.98;;
52554;SDS011;38455;52.710;6.502;2023-03-14T09:30:28;3.28;;;1.05;;
52554;SDS011;38455;52.710;6.502;2023-03-14T09:32:54;7.32;;;1.25;;
52554;SDS011;38455;52.710;6.502;2023-03-14T09:35:20;5.97;;;1.10;;
52554;SDS011;38455;52.710;6.502;2023-03-14T09:37:45;8.68;;;1.17;;
52554;SDS011;38455;52.710;6.502;2023-03-14T09:40:12;7.45;;;1.60;;
52554;SDS011;38455;52.710;6.502;2023-03-14T09:42:39;10.57;;;1.60;;
52554;SDS011;38455;52.710;6.502;2023-03-14T09:45:06;11.20;;;2.38;;
52554;SDS011;38455;52.710;6.502;2023-03-14T09:47:42;9.15;;;3.17;;
52554;SDS011;38455;52.710;6.502;2023-03-14T09:50:15;8.15;;;1.48;;
52554;SDS011;38455;52.710;6.502;2023-03-14T09:52:42;8.82;;;1.95;;
52554;SDS011;38455;52.710;6.502;2023-03-14T09:55:17;10.57;;;2.60;;
52554;SDS011;38455;52.710;6.502;2023-03-14T09:57:46;16.55;;;2.60;;
52554;SDS011;38455;52.710;6.502;2023-03-14T10:00:20;9.32;;;1.88;;
52554;SDS011;38455;52.710;6.502;2023-03-14T10:02:55;20.40;;;2.88;;
52554;SDS011;38455;52.710;6.502;2023-03-14T10:05:27;18.70;;;2.58;;
52554;SDS011;38455;52.710;6.502;2023-03-14T10:07:54;11.38;;;2.65;;
52554;SDS011;38455;52.710;6.502;2023-03-14T10:10:21;15.30;;;2.80;;
52554;SDS011;38455;52.710;6.502;2023-03-14T10:12:59;16.92;;;2.63;;
52554;SDS011;38455;52.710;6.502;2023-03-14T10:15:37;6.88;;;2.60;;
52554;SDS011;38455;52.710;6.502;2023-03-14T10:18:04;12.63;;;2.85;;
52554;SDS011;38455;52.710;6.502;2023-03-14T10:20:44;15.02;;;3.00;;
52554;SDS011;38455;52.710;6.502;2023-03-14T10:25:39;13.43;;;2.60;;
52554;SDS011;38455;52.710;6.502;2023-03-14T10:28:23;19.73;;;3.85;;
52554;SDS011;38455;52.710;6.502;2023-03-14T10:30:52;11.05;;;3.28;;
52554;SDS011;38455;52.710;6.502;2023-03-14T10:35:44;17.92;;;2.90;;
52554;SDS011;38455;52.710;6.502;2023-03-14T10:38:15;15.63;;;3.28;;
52554;SDS011;38455;52.710;6.502;2023-03-14T10:40:49;22.45;;;3.97;;
52554;SDS011;38455;52.710;6.502;2023-03-14T10:43:51;13.20;;;3.05;;
52554;SDS011;38455;52.710;6.502;2023-03-14T10:46:17;17.98;;;3.25;;
52554;SDS011;38455;52.710;6.502;2023-03-14T10:48:43;25.65;;;3.92;;
52554;SDS011;38455;52.710;6.502;2023-03-14T10:51:11;28.30;;;4.82;;
52554;SDS011;38455;52.710;6.502;2023-03-14T10:53:57;18.40;;;3.35;;
52554;SDS011;38455;52.710;6.502;2023-03-14T10:56:23;25.90;;;3.90;;
52554;SDS011;38455;52.710;6.502;2023-03-14T10:58:51;20.00;;;3.58;;
52554;SDS011;38455;52.710;6.502;2023-03-14T11:09:53;16.58;;;2.90;;
52554;SDS011;38455;52.710;6.502;2023-03-14T11:15:32;17.40;;;3.25;;
52554;SDS011;38455;52.710;6.502;2023-03-14T11:21:04;18.35;;;3.40;;
52554;SDS011;38455;52.710;6.502;2023-03-14T11:24:12;18.73;;;3.05;;
52554;SDS011;38455;52.710;6.502;2023-03-14T11:27:18;22.20;;;3.25;;
52554;SDS011;38455;52.710;6.502;2023-03-14T11:35:26;13.82;;;3.30;;
52554;SDS011;38455;52.710;6.502;2023-03-14T11:38:09;24.25;;;3.40;;
52554;SDS011;38455;52.710;6.502;2023-03-14T11:40:52;19.17;;;3.25;;
52554;SDS011;38455;52.710;6.502;2023-03-14T11:43:29;19.85;;;3.38;;
52554;SDS011;38455;52.710;6.502;2023-03-14T11:46:05;15.70;;;2.97;;
52554;SDS011;38455;52.710;6.502;2023-03-14T11:49:24;8.75;;;1.83;;
52554;SDS011;38455;52.710;6.502;2023-03-14T11:52:09;7.88;;;1.70;;
52554;SDS011;38455;52.710;6.502;2023-03-14T11:54:53;6.80;;;1.48;;
52554;SDS011;38455;52.710;6.502;2023-03-14T11:57:25;7.18;;;1.67;;
52554;SDS011;38455;52.710;6.502;2023-03-14T12:11:39;12.25;;;2.88;;
52554;SDS011;38455;52.710;6.502;2023-03-14T12:13:46;6.82;;;1.85;;
52554;SDS011;38455;52.710;6.502;2023-03-14T12:18:48;12.00;;;2.55;;
52554;SDS011;38455;52.710;6.502;2023-03-14T12:21:15;11.77;;;2.00;;
52554;SDS011;38455;52.710;6.502;2023-03-14T12:39:20;8.18;;;1.60;;
52554;SDS011;38455;52.710;6.502;2023-03-14T12:42:10;7.63;;;1.42;;
52554;SDS011;38455;52.710;6.502;2023-03-14T12:44:40;5.53;;;1.25;;
52554;SDS011;38455;52.710;6.502;2023-03-14T12:49:41;7.28;;;1.42;;
52554;SDS011;38455;52.710;6.502;2023-03-14T12:52:13;5.75;;;1.35;;
52554;SDS011;38455;52.710;6.502;2023-03-14T12:55:00;9.32;;;2.03;;
52554;SDS011;38455;52.710;6.502;2023-03-14T13:00:20;7.45;;;2.25;;
52554;SDS011;38455;52.710;6.502;2023-03-14T13:02:59;5.07;;;1.27;;
52554;SDS011;38455;52.710;6.502;2023-03-14T13:08:36;11.57;;;3.42;;
52554;SDS011;38455;52.710;6.502;2023-03-14T13:11:12;8.80;;;1.60;;
52554;SDS011;38455;52.710;6.502;2023-03-14T13:13:42;13.15;;;1.95;;
52554;SDS011;38455;52.710;6.502;2023-03-14T13:16:16;5.68;;;1.50;;
52554;SDS011;38455;52.710;6.502;2023-03-14T13:19:09;11.10;;;1.60;;
52554;SDS011;38455;52.710;6.502;2023-03-14T13:21:39;11.00;;;2.05;;
52554;SDS011;38455;52.710;6.502;2023-03-14T13:24:06;13.43;;;3.20;;
52554;SDS011;38455;52.710;6.502;2023-03-14T13:26:45;11.10;;;2.22;;
52554;SDS011;38455;52.710;6.502;2023-03-14T13:29:24;7.20;;;1.85;;
52554;SDS011;38455;52.710;6.502;2023-03-14T13:31:55;10.40;;;2.22;;
52554;SDS011;38455;52.710;6.502;2023-03-14T13:34:24;10.27;;;2.03;;
52554;SDS011;38455;52.710;6.502;2023-03-14T13:36:55;9.27;;;1.85;;
52554;SDS011;38455;52.710;6.502;2023-03-14T13:39:25;6.22;;;1.45;;
52554;SDS011;38455;52.710;6.502;2023-03-14T13:41:54;8.18;;;1.40;;
52554;SDS011;38455;52.710;6.502;2023-03-14T13:44:26;5.07;;;1.80;;
52554;SDS011;38455;52.710;6.502;2023-03-14T13:46:59;8.00;;;1.50;;
52554;SDS011;38455;52.710;6.502;2023-03-14T13:49:26;8.40;;;1.83;;
52554;SDS011;38455;52.710;6.502;2023-03-14T13:51:54;8.07;;;2.05;;
52554;SDS011;38455;52.710;6.502;2023-03-14T13:54:20;5.93;;;1.27;;
52554;SDS011;38455;52.710;6.502;2023-03-14T13:56:47;7.05;;;1.83;;
52554;SDS011;38455;52.710;6.502;2023-03-14T13:59:23;5.70;;;1.38;;
52554;SDS011;38455;52.710;6.502;2023-03-14T14:01:53;3.83;;;1.15;;
52554;SDS011;38455;52.710;6.502;2023-03-14T14:04:22;3.65;;;1.08;;
52554;SDS011;38455;52.710;6.502;2023-03-14T14:06:52;5.22;;;1.00;;
52554;SDS011;38455;52.710;6.502;2023-03-14T14:09:24;5.75;;;1.95;;
52554;SDS011;38455;52.710;6.502;2023-03-14T14:15:02;5.35;;;1.27;;
52554;SDS011;38455;52.710;6.502;2023-03-14T14:17:31;7.65;;;1.40;;
52554;SDS011;38455;52.710;6.502;2023-03-14T14:19:58;5.22;;;1.48;;
52554;SDS011;38455;52.710;6.502;2023-03-14T14:22:26;9.00;;;1.98;;
52554;SDS011;38455;52.710;6.502;2023-03-14T14:24:52;5.30;;;1.58;;
52554;SDS011;38455;52.710;6.502;2023-03-14T14:27:28;8.77;;;1.77;;
52554;SDS011;38455;52.710;6.502;2023-03-14T14:30:00;8.32;;;1.48;;
52554;SDS011;38455;52.710;6.502;2023-03-14T14:32:34;4.15;;;1.17;;
52554;SDS011;38455;52.710;6.502;2023-03-14T14:35:01;3.63;;;0.80;;
52554;SDS011;38455;52.710;6.502;2023-03-14T14:37:33;7.75;;;1.52;;
52554;SDS011;38455;52.710;6.502;2023-03-14T14:40:09;6.18;;;1.33;;
52554;SDS011;38455;52.710;6.502;2023-03-14T14:42:43;9.18;;;1.33;;
52554;SDS011;38455;52.710;6.502;2023-03-14T14:45:19;8.95;;;2.00;;
52554;SDS011;38455;52.710;6.502;2023-03-14T14:48:09;6.47;;;1.30;;
52554;SDS011;38455;52.710;6.502;2023-03-14T14:53:20;4.75;;;1.50;;
52554;SDS011;38455;52.710;6.502;2023-03-14T14:56:04;6.97;;;1.40;;
52554;SDS011;38455;52.710;6.502;2023-03-14T14:58:34;5.95;;;1.42;;
52554;SDS011;38455;52.710;6.502;2023-03-14T15:03:35;10.45;;;1.58;;
52554;SDS011;38455;52.710;6.502;2023-03-14T15:06:01;8.82;;;2.15;;
52554;SDS011;38455;52.710;6.502;2023-03-14T15:08:28;6.65;;;1.50;;
52554;SDS011;38455;52.710;6.502;2023-03-14T15:10:55;10.50;;;1.70;;
52554;SDS011;38455;52.710;6.502;2023-03-14T15:13:21;9.65;;;1.48;;
52554;SDS011;38455;52.710;6.502;2023-03-14T15:15:49;6.78;;;1.75;;
52554;SDS011;38455;52.710;6.502;2023-03-14T15:18:20;2.55;;;1.00;;
52554;SDS011;38455;52.710;6.502;2023-03-14T15:20:48;4.30;;;0.90;;
52554;SDS011;38455;52.710;6.502;2023-03-14T15:23:15;5.35;;;1.35;;
52554;SDS011;38455;52.710;6.502;2023-03-14T15:25:42;6.22;;;1.20;;
52554;SDS011;38455;52.710;6.502;2023-03-14T15:28:20;6.47;;;1.40;;
52554;SDS011;38455;52.710;6.502;2023-03-14T15:30:48;7.28;;;1.30;;
52554;SDS011;38455;52.710;6.502;2023-03-14T15:33:19;3.67;;;1.20;;
52554;SDS011;38455;52.710;6.502;2023-03-14T15:35:46;8.63;;;1.92;;
52554;SDS011;38455;52.710;6.502;2023-03-14T15:38:13;9.18;;;1.67;;
52554;SDS011;38455;52.710;6.502;2023-03-14T15:40:41;12.77;;;1.60;;
52554;SDS011;38455;52.710;6.502;2023-03-14T15:43:07;10.18;;;1.23;;
52554;SDS011;38455;52.710;6.502;2023-03-14T15:45:33;6.97;;;1.63;;
52554;SDS011;38455;52.710;6.502;2023-03-14T15:48:00;8.27;;;1.75;;
52554;SDS011;38455;52.710;6.502;2023-03-14T15:50:29;7.03;;;1.25;;
52554;SDS011;38455;52.710;6.502;2023-03-14T15:52:54;9.35;;;1.52;;
52554;SDS011;38455;52.710;6.502;2023-03-14T15:55:21;12.10;;;1.75;;
52554;SDS011;38455;52.710;6.502;2023-03-14T15:57:47;11.85;;;2.47;;
52554;SDS011;38455;52.710;6.502;2023-03-14T16:00:15;10.65;;;2.13;;
52554;SDS011;38455;52.710;6.502;2023-03-14T16:02:47;8.43;;;2.03;;
52554;SDS011;38455;52.710;6.502;2023-03-14T16:05:13;9.43;;;2.10;;
52554;SDS011;38455;52.710;6.502;2023-03-14T16:07:40;14.07;;;2.20;;
52554;SDS011;38455;52.710;6.502;2023-03-14T16:10:06;10.20;;;2.22;;